PSEPV SBRJ-SBGR
Flight info
| Callsign | PSEPV |
|---|---|
| Flight time | N/A |
| Altitude | 26000 |
| Route | ESORU UZ10 EDMUS |
| Aircraft | EPIC/L-SDFGRWY/S |
Departure
| Time | 2026-05-07 01:31 |
|---|---|
| Airport | Santos Dumont Airport (SBRJ) |
Arrival
| Time | N/A |
|---|---|
| Airport | São Paulo/Guarulhos–Governor André Franco Montoro International Airport (SBGR) |
| Time | Latitude | Longitude | Altitude | Speed | Heading |
|---|---|---|---|---|---|
| 2026-05-07 01:21 | -22.90525 | -43.16508 | 20 ft | 0 kts | 177° |
| 2026-05-07 01:23 | -22.90561 | -43.16504 | 20 ft | 9 kts | 170° |
| 2026-05-07 01:23 | -22.90605 | -43.16494 | 20 ft | 10 kts | 177° |
| 2026-05-07 01:23 | -22.90632 | -43.16521 | 20 ft | 7 kts | 270° |
| 2026-05-07 01:24 | -22.90613 | -43.16562 | 21 ft | 7 kts | 348° |
| 2026-05-07 01:24 | -22.90544 | -43.16564 | 21 ft | 6 kts | 356° |
| 2026-05-07 01:24 | -22.90517 | -43.16568 | 21 ft | 2 kts | 357° |
| 2026-05-07 01:24 | -22.90509 | -43.16566 | 21 ft | 0 kts | 18° |
| 2026-05-07 01:26 | -22.90501 | -43.16562 | 21 ft | 3 kts | 45° |
| 2026-05-07 01:26 | -22.90490 | -43.16514 | 20 ft | 9 kts | 85° |
| 2026-05-07 01:26 | -22.90488 | -43.16486 | 20 ft | 0 kts | 86° |
| 2026-05-07 01:28 | -22.90486 | -43.16461 | 20 ft | 6 kts | 83° |
| 2026-05-07 01:28 | -22.90477 | -43.16396 | 18 ft | 10 kts | 78° |
| 2026-05-07 01:29 | -22.90466 | -43.16347 | 17 ft | 2 kts | 76° |
| 2026-05-07 01:29 | -22.90476 | -43.16328 | 17 ft | 2 kts | 193° |
| 2026-05-07 01:29 | -22.90483 | -43.16328 | 16 ft | 0 kts | 178° |
| 2026-05-07 01:29 | -22.90484 | -43.16328 | 16 ft | 0 kts | 177° |
| 2026-05-07 01:30 | -22.90545 | -43.16323 | 16 ft | 43 kts | 175° |
| 2026-05-07 01:30 | -22.91220 | -43.16264 | 211 ft | 126 kts | 169° |
| 2026-05-07 01:31 | -22.92199 | -43.16181 | 810 ft | 162 kts | 174° |
| 2026-05-07 01:31 | -22.93197 | -43.15760 | 1993 ft | 161 kts | 139° |
| 2026-05-07 01:31 | -22.93839 | -43.14844 | 3153 ft | 162 kts | 108° |
| 2026-05-07 01:31 | -22.94404 | -43.13818 | 4292 ft | 166 kts | 127° |
| 2026-05-07 01:32 | -22.95222 | -43.12984 | 5443 ft | 168 kts | 138° |
| 2026-05-07 01:32 | -22.96123 | -43.12192 | 6571 ft | 171 kts | 138° |
| 2026-05-07 01:32 | -22.97089 | -43.11353 | 7459 ft | 187 kts | 138° |
| 2026-05-07 01:32 | -22.98118 | -43.10463 | 8264 ft | 194 kts | 138° |
| 2026-05-07 01:33 | -22.99232 | -43.09615 | 8936 ft | 203 kts | 157° |
| 2026-05-07 01:33 | -23.00620 | -43.09653 | 9652 ft | 211 kts | 201° |
| 2026-05-07 01:33 | -23.01780 | -43.10625 | 10453 ft | 210 kts | 220° |
| 2026-05-07 01:33 | -23.02905 | -43.11670 | 11197 ft | 213 kts | 218° |
| 2026-05-07 01:34 | -23.04032 | -43.12688 | 11915 ft | 215 kts | 218° |
| 2026-05-07 01:34 | -23.05183 | -43.13718 | 12602 ft | 214 kts | 218° |
| 2026-05-07 01:34 | -23.06353 | -43.14766 | 13192 ft | 216 kts | 218° |
| 2026-05-07 01:34 | -23.07327 | -43.16022 | 13733 ft | 219 kts | 251° |
| 2026-05-07 01:35 | -23.07291 | -43.17628 | 14316 ft | 219 kts | 289° |
| 2026-05-07 01:35 | -23.06398 | -43.19025 | 14670 ft | 229 kts | 313° |
| 2026-05-07 01:35 | -23.05253 | -43.20206 | 15291 ft | 225 kts | 317° |
| 2026-05-07 01:35 | -23.04074 | -43.21323 | 15876 ft | 223 kts | 318° |
| 2026-05-07 01:36 | -23.02898 | -43.22415 | 16398 ft | 226 kts | 318° |
| 2026-05-07 01:36 | -23.01740 | -43.23584 | 16924 ft | 228 kts | 308° |
| 2026-05-07 01:36 | -23.00887 | -43.25034 | 17437 ft | 230 kts | 296° |
| 2026-05-07 01:36 | -23.00133 | -43.26563 | 17945 ft | 232 kts | 294° |
| 2026-05-07 01:37 | -22.99630 | -43.28234 | 18471 ft | 233 kts | 277° |
| 2026-05-07 01:37 | -22.99582 | -43.29984 | 18987 ft | 233 kts | 260° |
| 2026-05-07 01:37 | -22.99751 | -43.31723 | 19493 ft | 235 kts | 264° |
| 2026-05-07 01:37 | -22.99828 | -43.33504 | 20021 ft | 235 kts | 265° |
| 2026-05-07 01:38 | -22.99883 | -43.35260 | 20392 ft | 233 kts | 265° |
| 2026-05-07 01:38 | -22.99934 | -43.37027 | 20665 ft | 236 kts | 265° |
| 2026-05-07 01:38 | -22.99984 | -43.38808 | 20956 ft | 237 kts | 265° |
| 2026-05-07 01:38 | -23.00035 | -43.40604 | 21261 ft | 237 kts | 265° |
| 2026-05-07 01:39 | -23.00085 | -43.42395 | 21568 ft | 237 kts | 265° |
| 2026-05-07 01:39 | -23.00134 | -43.44173 | 21843 ft | 237 kts | 266° |
| 2026-05-07 01:39 | -23.00183 | -43.45953 | 22102 ft | 238 kts | 266° |
| 2026-05-07 01:39 | -23.00233 | -43.47772 | 22365 ft | 239 kts | 266° |
| 2026-05-07 01:40 | -23.00283 | -43.49575 | 22624 ft | 239 kts | 266° |
| 2026-05-07 01:40 | -23.00332 | -43.51371 | 22882 ft | 240 kts | 266° |
| 2026-05-07 01:40 | -23.00382 | -43.53196 | 23144 ft | 240 kts | 266° |
| 2026-05-07 01:40 | -23.00348 | -43.55009 | 23389 ft | 242 kts | 275° |
| 2026-05-07 01:41 | -23.00098 | -43.56800 | 23656 ft | 242 kts | 273° |
| 2026-05-07 01:41 | -23.00045 | -43.58643 | 23915 ft | 242 kts | 267° |
| 2026-05-07 01:41 | -23.00081 | -43.60461 | 24159 ft | 243 kts | 265° |
| 2026-05-07 01:41 | -23.00133 | -43.62240 | 24401 ft | 244 kts | 265° |